Acton, MT

11:14 PM MDT on October 21, 2014 (GMT -0600)
Ironwood MT | Change Station
CLOSE
Current Station
Personal Weather Station
Location: Billings, MT
Elevation: 1068 m
Nearby Weather Stations

Elev 1068 m 45.82 °N, 108.66 °W | Updated 1 second ago

Overcast
Overcast
8.7 °C
Feels Like 6 °C
N
17.7
Wind Variable Wind from SSW
Gusts 17.7 km/h

Today
High -- | Low -- °C
--% Chance of Precip.
Yesterday
High -- | Low -- °C
Precip. -- mm
7:39 AM 6:18 PM
Waning Crescent, 3% visible
Pressure 1012 hPa
Visibility 16.1 kilometers
Clouds Scattered Clouds 2743 m
Windchill 6 °C
Dew Point 0 °C
Humidity 55%
Rainfall 0 mm
Snow Depth Not available.
UV 0 out of 12
Pollen 2.80 out of 12
Air Quality Not available.
Flu Activity No Activity
METAR KBIL 220453Z 28019KT 10SM SCT090 09/00 A2992 RMK AO2 PK WND 28026/0416 SLP122 T00940000

More Conditions Fewer Conditions

Pressure 1012 hPa
Visibility 16.1 kilometers
Clouds Scattered Clouds 2743 m
Windchill 6 °C
Dew Point 0 °C
Humidity 55%
Rainfall 0 mm
Snow Depth Not available.
UV 0 out of 12
Pollen 2.80 out of 12
Air Quality Not available.
Flu Activity No Activity
METAR KBIL 220453Z 28019KT 10SM SCT090 09/00 A2992 RMK AO2 PK WND 28026/0416 SLP122 T00940000

More Conditions Fewer Conditions

10-Day Weather Forecast

Almanac

Astronomy

Oct. 21, 2014 Rise Set
Actual Time 7:39 AM MDT 6:18 PM MDT
Civil Twilight 7:09 AM MDT 6:48 PM MDT
Nautical Twilight 6:34 AM MDT 7:23 PM MDT
Astronomical Twilight 6:00 AM MDT 7:57 PM MDT
Moon 5:20 AM MDT (10/21) 5:19 PM MDT (10/21)
Length of Visible Light 11h 39m
Length of Day
10h 38m
Tomorrow will be 3m 4s shorter.
Waning Crescent, 3% of the Moon is Illuminated
Oct 22
Waning Crescent
Oct 23
New
Oct 30
First Quarter
Nov 6
Full
Nov 14
Last Quarter

Yesterday's Extremes

State Highs State Lows

Community

WunderPhotos

Upload Photos

1,763,884 photos uploaded!

Nearby

Snow Depth

Station Depth Elevation
Burnt Mountain 0 in 5880 ft
Crystal Lake 1 in 6050 ft
South Fork Shields 0 in 8100 ft
Fisher Creek 1 in 9100 ft
Porcupine 0 in 6500 ft

Earthquake Activity

City Distance Mag. Time & Date
No recent earthquake activity has been reported nearby.
Minimum magnitude displayed is 2.5.

Coastal Water Temperatures

Place Temperature
No Stations Reporting

Nearby Weather Stations